In Rescue
 
Open Full Screen Window  High Contrast Mode
Wind Gusting 00 knots
11
July 24, 2024 6:17 PM EDT
Weather Information
Wind Direction
  360 °
Wind Speed
  11 kt (13 mph)
Wind Gust
  00 kt (0 mph)
Altimeter
30.13 in
Visibility
10 SM
Temperature
24° C
75° F
Dewpoint
14° C
57° F
Humidity
54%
1hr Rain Fall
00.00 in.
24hr Rain Fall
00.00 in.
Sky Condition
Scattered @ 4,700 ft
VFR

METAR KFFX 242217Z AUTO 36011KT 10SM SCT047 24/14 A3013 RMK AO2 T02380142

FAA Disclaimer: The data displayed is for advisory purposes only and is not to be used for flight planning or operations.